Time;durP1;ratioP1;P1;durP2;ratioP2;P2;SDS_P1;SDS_P2;PMS_P1;PMS_P2;Temp;Humidity;BMP_temperature;BMP_pressure;BME280_temperature;BME280_humidity;BME280_pressure;Samples;Min_cycle;Max_cycle;Signal;HPM_P1;HPM_P2
2022/10/16 00:00:32;;;;;;;58.77;3.20;;;;;;;;;;5111830;28;21021;-70
2022/10/16 00:03:01;;;;;;;57.67;2.60;;;;;;;;;;5112006;28;20446;-70
2022/10/16 00:05:28;;;;;;;58.10;3.00;;;;;;;;;;5111982;28;20469;-70
2022/10/16 00:07:55;;;;;;;58.00;2.93;;;;;;;;;;5111752;28;20446;-71
2022/10/16 00:10:23;;;;;;;58.00;2.90;;;;;;;;;;5111891;28;20477;-70
2022/10/16 00:12:50;;;;;;;58.37;3.30;;;;;;;;;;5111236;28;20445;-70
2022/10/16 00:15:17;;;;;;;57.90;2.93;;;;;;;;;;5111784;28;20496;-70
2022/10/16 00:17:44;;;;;;;57.97;2.80;;;;;;;;;;5111951;28;20451;-71
2022/10/16 00:20:13;;;;;;;59.20;2.67;;;;;;;;;;5113086;28;20445;-71
2022/10/16 00:22:40;;;;;;;58.40;3.13;;;;;;;;;;5115853;28;20941;-70
2022/10/16 00:25:07;;;;;;;58.50;3.17;;;;;;;;;;5115244;28;20452;-70
2022/10/16 00:27:35;;;;;;;58.27;3.00;;;;;;;;;;5116110;28;20467;-70
2022/10/16 00:30:02;;;;;;;58.40;2.57;;;;;;;;;;5115445;27;20998;-70
2022/10/16 00:32:29;;;;;;;57.43;2.53;;;;;;;;;;5115628;27;20448;-70
2022/10/16 00:34:56;;;;;;;59.40;3.10;;;;;;;;;;5115271;28;20456;-70
2022/10/16 00:37:25;;;;;;;58.43;3.10;;;;;;;;;;5115098;27;21001;-70
2022/10/16 00:39:52;;;;;;;57.80;2.70;;;;;;;;;;5115334;28;20449;-70
2022/10/16 00:42:20;;;;;;;58.07;3.60;;;;;;;;;;5115562;28;20479;-70
2022/10/16 00:44:52;;;;;;;57.80;2.70;;;;;;;;;;5115426;28;20452;-70
2022/10/16 00:47:22;;;;;;;58.50;2.73;;;;;;;;;;5115127;28;20461;-70
2022/10/16 00:49:50;;;;;;;58.07;3.00;;;;;;;;;;5115711;28;20515;-70
2022/10/16 00:52:18;;;;;;;57.77;2.73;;;;;;;;;;5115412;28;20481;-70
2022/10/16 00:54:48;;;;;;;59.17;3.07;;;;;;;;;;5115410;28;20452;-70
2022/10/16 00:57:15;;;;;;;58.47;3.53;;;;;;;;;;5114903;28;20985;-70
2022/10/16 00:59:42;;;;;;;58.10;3.10;;;;;;;;;;5114381;28;20456;-70
2022/10/16 01:02:11;;;;;;;57.63;2.50;;;;;;;;;;5115440;28;20579;-70
2022/10/16 01:04:40;;;;;;;58.40;2.93;;;;;;;;;;5115344;28;20441;-70
2022/10/16 01:07:11;;;;;;;59.23;3.27;;;;;;;;;;5114953;28;20462;-70
2022/10/16 01:09:42;;;;;;;57.80;2.60;;;;;;;;;;5114073;28;20448;-70
2022/10/16 01:12:16;;;;;;;58.17;2.83;;;;;;;;;;5114972;28;20852;-70
2022/10/16 01:14:47;;;;;;;58.10;3.00;;;;;;;;;;5115256;28;20449;-70
2022/10/16 01:17:17;;;;;;;58.30;3.20;;;;;;;;;;5115062;28;20477;-70
2022/10/16 01:19:54;;;;;;;59.13;3.40;;;;;;;;;;5114571;28;20448;-70
2022/10/16 01:22:22;;;;;;;58.07;2.93;;;;;;;;;;5114347;28;20534;-70
2022/10/16 01:24:50;;;;;;;59.67;3.97;;;;;;;;;;5114736;28;20446;-70
2022/10/16 01:27:21;;;;;;;58.57;3.83;;;;;;;;;;5114830;28;20476;-71
2022/10/16 01:29:53;;;;;;;58.60;3.03;;;;;;;;;;5114448;28;20449;-70
2022/10/16 01:32:24;;;;;;;58.47;3.80;;;;;;;;;;5112970;28;20477;-70
2022/10/16 01:34:54;;;;;;;58.30;3.30;;;;;;;;;;5114569;28;20465;-70
2022/10/16 01:37:24;;;;;;;57.47;2.50;;;;;;;;;;5114409;28;20470;-70
2022/10/16 01:39:52;;;;;;;58.50;3.27;;;;;;;;;;5114180;28;20942;-70
2022/10/16 01:42:22;;;;;;;58.27;3.07;;;;;;;;;;5114596;28;20681;-70
2022/10/16 01:44:50;;;;;;;58.30;3.10;;;;;;;;;;5113328;28;20442;-71
2022/10/16 01:47:19;;;;;;;58.30;3.00;;;;;;;;;;5114404;28;20466;-71
2022/10/16 01:49:46;;;;;;;57.90;3.00;;;;;;;;;;5114121;27;20449;-70
2022/10/16 01:52:16;;;;;;;58.07;3.07;;;;;;;;;;5114585;28;20489;-70
2022/10/16 01:54:45;;;;;;;57.90;2.70;;;;;;;;;;5112713;28;20457;-70
2022/10/16 01:57:13;;;;;;;57.93;3.10;;;;;;;;;;5113989;28;20474;-70
2022/10/16 01:59:43;;;;;;;57.57;2.73;;;;;;;;;;5113736;28;20817;-70
2022/10/16 02:02:12;;;;;;;57.87;2.87;;;;;;;;;;5114138;27;20542;-70
2022/10/16 02:04:40;;;;;;;58.30;3.20;;;;;;;;;;5114180;28;20449;-71
2022/10/16 02:07:08;;;;;;;57.63;2.70;;;;;;;;;;5113144;27;20472;-70
2022/10/16 02:09:35;;;;;;;57.57;2.70;;;;;;;;;;5113594;28;20973;-71
2022/10/16 02:12:05;;;;;;;57.97;2.70;;;;;;;;;;5113882;28;20480;-70
2022/10/16 02:14:32;;;;;;;58.37;2.90;;;;;;;;;;5114106;28;20818;-70
2022/10/16 02:17:01;;;;;;;58.67;3.70;;;;;;;;;;5113783;28;20469;-70
2022/10/16 02:19:28;;;;;;;57.90;3.03;;;;;;;;;;5112865;28;20453;-70
2022/10/16 02:21:56;;;;;;;58.07;3.03;;;;;;;;;;5113651;28;20441;-70
2022/10/16 02:24:28;;;;;;;57.73;2.70;;;;;;;;;;5113597;28;20920;-70
2022/10/16 02:26:59;;;;;;;58.80;3.30;;;;;;;;;;5113821;28;20488;-71
2022/10/16 02:29:27;;;;;;;60.00;3.70;;;;;;;;;;5112957;28;20785;-71
2022/10/16 02:31:57;;;;;;;58.40;2.90;;;;;;;;;;5113138;28;20482;-70
2022/10/16 02:34:26;;;;;;;57.60;2.70;;;;;;;;;;5113216;28;20929;-70
2022/10/16 02:36:54;;;;;;;57.43;2.60;;;;;;;;;;5113158;28;20981;-70
2022/10/16 02:39:22;;;;;;;57.80;2.50;;;;;;;;;;5113258;28;20453;-71
2022/10/16 02:41:49;;;;;;;57.47;2.80;;;;;;;;;;5112755;28;20448;-70
2022/10/16 02:44:16;;;;;;;57.53;2.70;;;;;;;;;;5112209;28;20472;-71
2022/10/16 02:46:43;;;;;;;57.47;2.57;;;;;;;;;;5113384;28;20465;-70
2022/10/16 02:49:10;;;;;;;59.10;3.63;;;;;;;;;;5112808;28;20455;-71
2022/10/16 02:51:39;;;;;;;58.57;3.13;;;;;;;;;;5112904;28;20492;-70
2022/10/16 02:54:06;;;;;;;57.77;2.67;;;;;;;;;;5112259;28;20446;-70
2022/10/16 02:56:33;;;;;;;58.20;3.10;;;;;;;;;;5113063;28;20470;-70
2022/10/16 02:59:00;;;;;;;57.87;2.87;;;;;;;;;;5112614;28;20446;-70
2022/10/16 03:01:27;;;;;;;57.70;2.77;;;;;;;;;;5112987;28;20460;-70
2022/10/16 03:03:55;;;;;;;57.87;2.60;;;;;;;;;;5112456;28;20445;-71
2022/10/16 03:06:23;;;;;;;57.90;2.97;;;;;;;;;;5112505;28;20493;-71
2022/10/16 03:08:51;;;;;;;57.80;2.90;;;;;;;;;;5112669;28;20864;-71
2022/10/16 03:11:18;;;;;;;57.60;2.30;;;;;;;;;;5112795;28;20473;-71
2022/10/16 03:13:46;;;;;;;58.00;3.00;;;;;;;;;;5112502;28;20460;-71
2022/10/16 03:16:13;;;;;;;57.60;2.60;;;;;;;;;;5112053;28;20472;-70
2022/10/16 03:18:40;;;;;;;58.07;2.87;;;;;;;;;;5112146;28;20446;-70
2022/10/16 03:21:07;;;;;;;58.10;3.20;;;;;;;;;;5112538;27;20514;-71
2022/10/16 03:23:34;;;;;;;57.53;2.57;;;;;;;;;;5112584;28;20455;-71
2022/10/16 03:26:03;;;;;;;58.00;3.00;;;;;;;;;;5112399;28;20985;-71
2022/10/16 03:28:30;;;;;;;57.53;2.77;;;;;;;;;;5111418;28;20453;-71
2022/10/16 03:30:57;;;;;;;57.83;2.97;;;;;;;;;;5112406;28;20825;-71
2022/10/16 03:33:24;;;;;;;59.20;2.77;;;;;;;;;;5112161;28;20448;-71
2022/10/16 03:35:54;;;;;;;59.07;2.90;;;;;;;;;;5112458;27;20462;-71
2022/10/16 03:38:22;;;;;;;57.97;3.00;;;;;;;;;;5112051;28;20445;-71
2022/10/16 03:40:49;;;;;;;57.57;2.60;;;;;;;;;;5111934;28;20481;-71
2022/10/16 03:43:17;;;;;;;57.73;2.70;;;;;;;;;;5112442;28;20444;-71
2022/10/16 03:45:44;;;;;;;57.90;2.50;;;;;;;;;;5112081;28;20817;-71
2022/10/16 03:48:12;;;;;;;57.73;2.60;;;;;;;;;;5112573;28;20442;-70
2022/10/16 03:50:39;;;;;;;58.57;3.40;;;;;;;;;;5111556;28;20532;-70
2022/10/16 03:53:06;;;;;;;58.10;2.97;;;;;;;;;;5112360;28;20481;-71
2022/10/16 03:55:33;;;;;;;58.67;2.90;;;;;;;;;;5111843;28;20461;-71
2022/10/16 03:58:00;;;;;;;58.27;2.60;;;;;;;;;;5112066;28;20452;-71
2022/10/16 04:00:29;;;;;;;58.00;2.70;;;;;;;;;;5111801;28;20445;-71
2022/10/16 04:02:56;;;;;;;57.70;2.80;;;;;;;;;;5111482;28;20450;-71
2022/10/16 04:05:23;;;;;;;57.67;2.90;;;;;;;;;;5112158;28;20464;-71
2022/10/16 04:07:50;;;;;;;58.00;2.87;;;;;;;;;;5112020;28;20453;-71
2022/10/16 04:10:17;;;;;;;58.00;2.80;;;;;;;;;;5111468;28;20453;-71
2022/10/16 04:12:44;;;;;;;57.40;2.50;;;;;;;;;;5111226;28;20478;-70
2022/10/16 04:15:11;;;;;;;57.53;2.87;;;;;;;;;;5111436;28;20942;-70
2022/10/16 04:17:40;;;;;;;57.73;2.60;;;;;;;;;;5112143;28;20437;-71
2022/10/16 04:20:07;;;;;;;57.67;2.50;;;;;;;;;;5111587;28;20445;-70
2022/10/16 04:22:34;;;;;;;57.53;2.67;;;;;;;;;;5111971;28;20452;-71
2022/10/16 04:25:01;;;;;;;58.30;2.77;;;;;;;;;;5111126;28;20836;-71
2022/10/16 04:27:31;;;;;;;57.57;2.40;;;;;;;;;;5112014;28;20479;-71
2022/10/16 04:29:58;;;;;;;57.80;2.60;;;;;;;;;;5111668;28;20454;-71
2022/10/16 04:32:25;;;;;;;57.57;2.47;;;;;;;;;;5111689;28;21001;-71
2022/10/16 04:34:53;;;;;;;58.67;3.20;;;;;;;;;;5111695;28;20464;-71
2022/10/16 04:37:21;;;;;;;57.67;2.40;;;;;;;;;;5110984;28;20476;-71
2022/10/16 04:39:48;;;;;;;57.80;2.50;;;;;;;;;;5111302;28;20938;-71
2022/10/16 04:42:15;;;;;;;58.20;3.10;;;;;;;;;;5111948;28;20485;-71
2022/10/16 04:44:42;;;;;;;58.83;2.60;;;;;;;;;;5109739;28;20945;-71
2022/10/16 04:47:09;;;;;;;57.67;2.73;;;;;;;;;;5109443;28;20502;-71
2022/10/16 04:49:36;;;;;;;58.00;2.70;;;;;;;;;;5109164;28;20448;-71
2022/10/16 04:52:05;;;;;;;58.20;2.80;;;;;;;;;;5109745;28;20481;-71
2022/10/16 04:54:32;;;;;;;57.57;2.67;;;;;;;;;;5109705;28;20441;-71
2022/10/16 04:56:59;;;;;;;57.63;2.80;;;;;;;;;;5110301;28;20464;-70
2022/10/16 04:59:26;;;;;;;58.10;2.70;;;;;;;;;;5110438;28;20458;-70
2022/10/16 05:01:53;;;;;;;57.60;2.37;;;;;;;;;;5111538;28;20445;-71
2022/10/16 05:04:20;;;;;;;57.70;2.60;;;;;;;;;;5111569;28;20445;-71
2022/10/16 05:06:47;;;;;;;57.80;2.87;;;;;;;;;;5112267;28;20457;-71
2022/10/16 05:09:16;;;;;;;58.83;2.90;;;;;;;;;;5114676;28;20468;-70
2022/10/16 05:11:43;;;;;;;57.57;2.53;;;;;;;;;;5114504;28;20822;-71
2022/10/16 05:14:10;;;;;;;57.77;2.47;;;;;;;;;;5115208;28;20445;-71
2022/10/16 05:16:37;;;;;;;57.67;2.50;;;;;;;;;;5114844;28;20499;-70
2022/10/16 05:19:04;;;;;;;57.90;2.70;;;;;;;;;;5114642;28;20454;-71
2022/10/16 05:21:31;;;;;;;57.83;2.67;;;;;;;;;;5114619;28;20448;-71
2022/10/16 05:23:58;;;;;;;57.27;2.70;;;;;;;;;;5114763;28;20445;-71
2022/10/16 05:26:27;;;;;;;58.80;3.20;;;;;;;;;;5114896;27;20493;-71
2022/10/16 05:28:54;;;;;;;58.07;2.87;;;;;;;;;;5114799;28;20449;-71
2022/10/16 05:31:21;;;;;;;57.70;2.80;;;;;;;;;;5114849;27;20465;-71
2022/10/16 05:33:48;;;;;;;59.80;3.07;;;;;;;;;;5113953;28;20481;-71
2022/10/16 05:36:15;;;;;;;58.07;3.13;;;;;;;;;;5114418;28;21016;-71
2022/10/16 05:38:42;;;;;;;58.20;3.03;;;;;;;;;;5114445;28;20464;-71
2022/10/16 05:41:09;;;;;;;57.77;2.90;;;;;;;;;;5114697;28;20449;-71
2022/10/16 05:43:38;;;;;;;57.90;2.60;;;;;;;;;;5114464;28;20442;-71
2022/10/16 05:46:06;;;;;;;58.17;2.90;;;;;;;;;;5113695;28;20466;-71
2022/10/16 05:48:33;;;;;;;58.27;2.63;;;;;;;;;;5114145;28;20446;-71
2022/10/16 05:51:01;;;;;;;57.57;2.33;;;;;;;;;;5114564;28;20452;-70
2022/10/16 05:53:29;;;;;;;57.67;2.93;;;;;;;;;;5114680;28;20507;-70
2022/10/16 05:55:56;;;;;;;58.80;3.20;;;;;;;;;;5114153;28;20466;-71
2022/10/16 05:58:23;;;;;;;58.37;3.10;;;;;;;;;;5113652;28;20566;-71
2022/10/16 06:00:56;;;;;;;57.90;2.80;;;;;;;;;;5113912;28;20446;-71
2022/10/16 06:03:23;;;;;;;57.70;2.70;;;;;;;;;;5114031;28;20470;-71
2022/10/16 06:05:50;;;;;;;57.87;2.80;;;;;;;;;;5114155;28;20462;-70
2022/10/16 06:08:18;;;;;;;58.10;2.90;;;;;;;;;;5113484;28;20542;-71
2022/10/16 06:10:45;;;;;;;57.47;2.60;;;;;;;;;;5113720;28;20544;-70
2022/10/16 06:13:12;;;;;;;58.27;2.70;;;;;;;;;;5113893;28;20503;-71
2022/10/16 06:15:41;;;;;;;59.20;2.77;;;;;;;;;;5113635;28;20542;-71
2022/10/16 06:18:09;;;;;;;57.70;2.87;;;;;;;;;;5113831;28;20464;-70
2022/10/16 06:20:37;;;;;;;57.80;2.93;;;;;;;;;;5113137;28;20456;-71
2022/10/16 06:23:04;;;;;;;57.97;2.87;;;;;;;;;;5113861;28;20469;-70
2022/10/16 06:25:31;;;;;;;58.10;2.97;;;;;;;;;;5113589;28;20469;-71
2022/10/16 06:27:58;;;;;;;58.03;3.20;;;;;;;;;;5113390;28;20969;-71
2022/10/16 06:30:25;;;;;;;58.70;2.87;;;;;;;;;;5113101;28;20457;-71
2022/10/16 06:32:53;;;;;;;57.70;2.83;;;;;;;;;;5112856;28;20481;-71
2022/10/16 06:35:21;;;;;;;58.07;3.00;;;;;;;;;;5113370;28;20461;-71
2022/10/16 06:37:48;;;;;;;58.10;2.60;;;;;;;;;;5113714;28;20664;-68
2022/10/16 06:40:16;;;;;;;57.70;3.10;;;;;;;;;;5113118;28;20448;-71
2022/10/16 06:42:43;;;;;;;57.90;2.60;;;;;;;;;;5112929;28;20463;-71
2022/10/16 06:45:11;;;;;;;57.70;2.60;;;;;;;;;;5113317;28;20456;-71
2022/10/16 06:47:38;;;;;;;57.67;2.70;;;;;;;;;;5113305;28;20817;-71
2022/10/16 06:50:07;;;;;;;57.67;2.47;;;;;;;;;;5113003;28;20449;-70
2022/10/16 06:52:36;;;;;;;57.70;2.60;;;;;;;;;;5113089;28;21013;-71
2022/10/16 06:55:03;;;;;;;57.87;2.70;;;;;;;;;;5112506;28;20950;-71
2022/10/16 06:57:30;;;;;;;57.67;2.40;;;;;;;;;;5112768;28;20469;-71
2022/10/16 06:59:57;;;;;;;58.33;3.23;;;;;;;;;;5112602;28;20454;-71
2022/10/16 07:02:25;;;;;;;57.57;2.80;;;;;;;;;;5113162;28;20438;-71
2022/10/16 07:04:52;;;;;;;58.93;3.20;;;;;;;;;;5112899;28;20832;-70
2022/10/16 07:07:19;;;;;;;57.73;2.60;;;;;;;;;;5112312;28;20465;-70
2022/10/16 07:09:47;;;;;;;57.70;2.50;;;;;;;;;;5112273;28;20446;-71
2022/10/16 07:12:14;;;;;;;57.17;2.47;;;;;;;;;;5112640;28;20507;-71
2022/10/16 07:14:41;;;;;;;58.77;3.57;;;;;;;;;;5112911;28;20476;-70
2022/10/16 07:17:09;;;;;;;58.00;2.57;;;;;;;;;;5112002;28;20476;-71
2022/10/16 07:19:36;;;;;;;59.10;3.20;;;;;;;;;;5112200;28;20826;-71
2022/10/16 07:22:04;;;;;;;57.57;2.53;;;;;;;;;;5112736;28;20453;-70
2022/10/16 07:24:31;;;;;;;58.00;2.77;;;;;;;;;;5112523;28;20454;-71
2022/10/16 07:27:00;;;;;;;57.47;2.67;;;;;;;;;;5112447;28;21024;-71
2022/10/16 07:29:27;;;;;;;57.83;2.90;;;;;;;;;;5111043;28;20830;-71
2022/10/16 07:31:54;;;;;;;58.20;3.10;;;;;;;;;;5112491;28;20545;-71
2022/10/16 07:34:22;;;;;;;57.67;2.50;;;;;;;;;;5112437;28;20481;-71
2022/10/16 07:36:50;;;;;;;57.67;2.87;;;;;;;;;;5112348;28;20548;-71
2022/10/16 07:39:17;;;;;;;57.60;2.70;;;;;;;;;;5111987;28;20452;-71
2022/10/16 07:41:44;;;;;;;57.90;3.30;;;;;;;;;;5111918;28;20437;-71
2022/10/16 07:44:13;;;;;;;58.10;2.90;;;;;;;;;;5112541;28;20446;-71
2022/10/16 07:46:40;;;;;;;57.67;3.07;;;;;;;;;;5112268;28;20468;-71
2022/10/16 07:49:07;;;;;;;57.90;3.07;;;;;;;;;;5112112;28;20452;-71
2022/10/16 07:51:34;;;;;;;57.90;2.70;;;;;;;;;;5111807;28;20450;-71
2022/10/16 07:54:01;;;;;;;58.30;2.70;;;;;;;;;;5112207;28;20846;-71
2022/10/16 07:56:28;;;;;;;57.87;2.70;;;;;;;;;;5112239;28;20551;-71
2022/10/16 07:58:56;;;;;;;59.23;2.67;;;;;;;;;;5111955;28;20829;-70
2022/10/16 08:01:24;;;;;;;57.90;3.03;;;;;;;;;;5112191;28;20441;-70
2022/10/16 08:03:53;;;;;;;57.77;2.77;;;;;;;;;;5111389;28;20472;-70
2022/10/16 08:06:20;;;;;;;57.50;2.80;;;;;;;;;;5111902;28;20469;-71
2022/10/16 08:08:47;;;;;;;60.13;2.70;;;;;;;;;;5111686;28;20987;-71
2022/10/16 08:11:15;;;;;;;58.50;3.60;;;;;;;;;;5111955;28;20503;-71
2022/10/16 08:13:42;;;;;;;58.57;3.40;;;;;;;;;;5112147;28;20847;-70
2022/10/16 08:16:09;;;;;;;58.20;3.07;;;;;;;;;;5111970;28;20469;-70
2022/10/16 08:18:38;;;;;;;57.77;3.00;;;;;;;;;;5111663;28;20445;-71
2022/10/16 08:21:06;;;;;;;58.80;3.40;;;;;;;;;;5112105;28;20480;-71
2022/10/16 08:23:34;;;;;;;57.60;2.80;;;;;;;;;;5112073;28;20441;-71
2022/10/16 08:26:04;;;;;;;57.60;2.73;;;;;;;;;;5110973;28;21004;-71
2022/10/16 08:28:31;;;;;;;58.20;2.90;;;;;;;;;;5111659;28;20821;-70
2022/10/16 08:31:06;;;;;;;58.30;3.27;;;;;;;;;;5111971;28;20446;-70
2022/10/16 08:33:34;;;;;;;58.40;3.00;;;;;;;;;;5111877;28;20487;-70
2022/10/16 08:36:03;;;;;;;57.80;2.93;;;;;;;;;;5111363;28;20474;-70
2022/10/16 08:38:30;;;;;;;57.87;2.83;;;;;;;;;;5111446;28;20950;-71
2022/10/16 08:41:02;;;;;;;58.80;3.07;;;;;;;;;;5112908;28;20441;-70
2022/10/16 08:43:36;;;;;;;58.30;3.00;;;;;;;;;;5115695;28;21028;-71
2022/10/16 08:46:12;;;;;;;59.00;3.03;;;;;;;;;;5115781;27;20469;-71
2022/10/16 08:48:45;;;;;;;57.87;2.80;;;;;;;;;;5114587;28;20445;-71
2022/10/16 08:51:17;;;;;;;58.10;3.07;;;;;;;;;;5115588;28;20449;-70
2022/10/16 08:53:48;;;;;;;57.87;3.27;;;;;;;;;;5115348;28;20481;-70
2022/10/16 08:56:15;;;;;;;60.30;3.00;;;;;;;;;;5115191;28;20484;-71
2022/10/16 08:58:42;;;;;;;58.10;3.10;;;;;;;;;;5114937;28;20538;-70
2022/10/16 09:01:13;;;;;;;57.87;3.20;;;;;;;;;;5115089;28;20441;-71
2022/10/16 09:03:55;;;;;;;57.97;2.53;;;;;;;;;;5115445;28;20441;-70
2022/10/16 09:06:39;;;;;;;58.10;2.70;;;;;;;;;;5113107;28;20469;-70
2022/10/16 09:09:14;;;;;;;58.20;2.97;;;;;;;;;;5115350;28;20441;-71
2022/10/16 09:11:48;;;;;;;58.10;2.80;;;;;;;;;;5114671;28;20804;-71
2022/10/16 09:14:25;;;;;;;58.30;2.90;;;;;;;;;;5115200;28;20481;-71
2022/10/16 09:16:55;;;;;;;57.93;2.60;;;;;;;;;;5114978;28;20473;-70
2022/10/16 09:19:24;;;;;;;58.00;2.77;;;;;;;;;;5114618;28;20933;-70
2022/10/16 09:21:53;;;;;;;57.80;2.80;;;;;;;;;;5114693;28;20452;-70
2022/10/16 09:24:21;;;;;;;58.40;2.93;;;;;;;;;;5114510;28;20449;-71
2022/10/16 09:26:49;;;;;;;58.40;2.60;;;;;;;;;;5114866;27;20469;-70
2022/10/16 09:29:16;;;;;;;58.47;2.90;;;;;;;;;;5114550;28;20454;-70
2022/10/16 09:31:44;;;;;;;58.00;2.57;;;;;;;;;;5115097;28;20445;-71
2022/10/16 09:34:18;;;;;;;58.30;2.93;;;;;;;;;;5114132;28;20487;-71
2022/10/16 09:36:46;;;;;;;57.50;2.40;;;;;;;;;;5114764;28;20468;-71
2022/10/16 09:39:14;;;;;;;57.37;2.40;;;;;;;;;;5114482;28;20445;-71
2022/10/16 09:41:43;;;;;;;57.77;2.27;;;;;;;;;;5114570;28;20446;-71
2022/10/16 09:44:20;;;;;;;58.00;2.37;;;;;;;;;;5114421;28;20441;-71
2022/10/16 09:46:47;;;;;;;57.27;2.20;;;;;;;;;;5114284;28;20471;-71
2022/10/16 09:49:24;;;;;;;58.07;2.33;;;;;;;;;;5114387;28;20449;-70
2022/10/16 09:51:51;;;;;;;57.87;2.47;;;;;;;;;;5114415;28;20471;-71
2022/10/16 09:54:20;;;;;;;57.10;2.27;;;;;;;;;;5113592;28;20478;-70
2022/10/16 09:56:51;;;;;;;57.57;2.17;;;;;;;;;;5113624;28;20466;-71
2022/10/16 09:59:19;;;;;;;57.83;2.40;;;;;;;;;;5114092;28;20454;-71
2022/10/16 10:01:47;;;;;;;59.13;2.53;;;;;;;;;;5114318;28;20452;-71
2022/10/16 10:04:15;;;;;;;58.20;2.90;;;;;;;;;;5114169;28;20441;-71
2022/10/16 10:06:44;;;;;;;57.60;2.17;;;;;;;;;;5114077;28;20469;-71
2022/10/16 10:09:20;;;;;;;57.60;2.30;;;;;;;;;;5113392;28;20460;-71
2022/10/16 10:11:52;;;;;;;57.53;2.13;;;;;;;;;;5114062;28;20441;-71
2022/10/16 10:14:21;;;;;;;58.80;2.70;;;;;;;;;;5113897;28;20486;-71
2022/10/16 10:16:49;;;;;;;57.10;2.07;;;;;;;;;;5113793;28;20470;-70
2022/10/16 10:19:17;;;;;;;57.07;2.10;;;;;;;;;;5113375;28;20456;-70
2022/10/16 10:21:44;;;;;;;57.40;1.87;;;;;;;;;;5113344;28;20442;-70
2022/10/16 10:24:12;;;;;;;57.50;2.20;;;;;;;;;;5113656;27;20963;-71
2022/10/16 10:26:45;;;;;;;57.60;2.00;;;;;;;;;;5113675;28;20466;-71
2022/10/16 10:29:16;;;;;;;56.77;2.00;;;;;;;;;;5113491;28;20450;-71
2022/10/16 10:31:46;;;;;;;57.73;2.10;;;;;;;;;;5112941;28;20801;-71
2022/10/16 10:34:28;;;;;;;57.20;1.97;;;;;;;;;;5113388;28;20485;-71
2022/10/16 10:36:59;;;;;;;57.27;1.83;;;;;;;;;;5113656;28;20522;-71
2022/10/16 10:39:29;;;;;;;57.43;2.07;;;;;;;;;;5113413;28;20452;-71
2022/10/16 10:42:05;;;;;;;57.30;2.00;;;;;;;;;;5113390;28;20991;-71
2022/10/16 10:44:39;;;;;;;56.73;1.70;;;;;;;;;;5112866;28;20446;-71
2022/10/16 10:47:15;;;;;;;57.47;2.30;;;;;;;;;;5113549;28;20473;-71
2022/10/16 10:49:50;;;;;;;57.77;2.00;;;;;;;;;;5113054;27;20540;-70
2022/10/16 10:52:36;;;;;;;57.90;1.90;;;;;;;;;;5113361;28;20442;-71
2022/10/16 10:55:11;;;;;;;56.83;1.80;;;;;;;;;;5112349;28;20501;-69
2022/10/16 10:57:44;;;;;;;58.07;2.23;;;;;;;;;;5113069;28;20510;-71
2022/10/16 11:00:17;;;;;;;57.53;2.10;;;;;;;;;;5112990;28;20449;-71
2022/10/16 11:02:49;;;;;;;57.60;2.10;;;;;;;;;;5113074;28;20813;-69
2022/10/16 11:05:23;;;;;;;57.80;2.10;;;;;;;;;;5111539;28;20452;-68
2022/10/16 11:07:52;;;;;;;57.70;2.00;;;;;;;;;;5112755;28;20833;-71
2022/10/16 11:10:22;;;;;;;57.13;2.00;;;;;;;;;;5112728;28;20472;-71
2022/10/16 11:12:53;;;;;;;57.40;2.00;;;;;;;;;;5112925;28;20456;-71
2022/10/16 11:15:22;;;;;;;58.07;2.20;;;;;;;;;;5112721;28;20490;-68
2022/10/16 11:17:52;;;;;;;57.20;2.00;;;;;;;;;;5112065;28;20456;-69
2022/10/16 11:20:21;;;;;;;57.50;1.80;;;;;;;;;;5112661;28;20458;-69
2022/10/16 11:22:50;;;;;;;57.20;1.90;;;;;;;;;;5112628;28;20472;-69
2022/10/16 11:25:19;;;;;;;59.57;2.27;;;;;;;;;;5112602;28;20945;-68
2022/10/16 11:27:50;;;;;;;57.60;2.27;;;;;;;;;;5112530;28;20964;-68
2022/10/16 11:30:21;;;;;;;57.20;2.50;;;;;;;;;;5111567;28;20456;-69
2022/10/16 11:32:54;;;;;;;58.10;2.10;;;;;;;;;;5112716;28;20451;-69
2022/10/16 11:35:23;;;;;;;57.00;1.80;;;;;;;;;;5112335;28;20485;-69
2022/10/16 11:37:52;;;;;;;57.13;1.90;;;;;;;;;;5112460;28;20445;-69
2022/10/16 11:40:23;;;;;;;57.00;1.80;;;;;;;;;;5111986;28;20461;-69
2022/10/16 11:42:53;;;;;;;57.90;1.90;;;;;;;;;;5112124;28;20442;-69
2022/10/16 11:45:28;;;;;;;57.10;1.90;;;;;;;;;;5112583;28;20446;-68
2022/10/16 11:47:58;;;;;;;57.00;1.80;;;;;;;;;;5112338;28;20820;-69
2022/10/16 11:50:28;;;;;;;56.77;1.90;;;;;;;;;;5112077;28;20821;-68
2022/10/16 11:52:58;;;;;;;56.87;1.80;;;;;;;;;;5111532;28;20446;-68
2022/10/16 11:55:26;;;;;;;56.77;1.70;;;;;;;;;;5111915;28;20481;-69
2022/10/16 11:57:55;;;;;;;57.17;1.90;;;;;;;;;;5112309;28;20946;-68
2022/10/16 12:00:26;;;;;;;57.10;2.00;;;;;;;;;;5112019;28;20445;-68
2022/10/16 12:02:57;;;;;;;57.37;1.83;;;;;;;;;;5111919;28;20510;-71
2022/10/16 12:05:29;;;;;;;57.13;1.80;;;;;;;;;;5111872;28;20437;-68
2022/10/16 12:08:02;;;;;;;57.27;2.20;;;;;;;;;;5111896;28;20460;-69
2022/10/16 12:10:31;;;;;;;56.87;1.80;;;;;;;;;;5111983;28;20822;-68
2022/10/16 12:12:59;;;;;;;57.07;1.60;;;;;;;;;;5112112;28;20456;-69
2022/10/16 12:15:28;;;;;;;57.03;1.67;;;;;;;;;;5111622;28;20477;-69
2022/10/16 12:17:56;;;;;;;56.77;1.90;;;;;;;;;;5116071;28;20454;-70
2022/10/16 12:20:30;;;;;;;56.90;1.90;;;;;;;;;;5115782;28;20798;-69
2022/10/16 12:22:58;;;;;;;57.07;1.80;;;;;;;;;;5116272;28;20499;-69
2022/10/16 12:25:27;;;;;;;57.00;2.10;;;;;;;;;;5116085;28;20520;-69
2022/10/16 12:27:56;;;;;;;57.07;2.00;;;;;;;;;;5115429;28;20453;-69
2022/10/16 12:30:24;;;;;;;58.00;1.90;;;;;;;;;;5115810;28;20471;-69
2022/10/16 12:32:57;;;;;;;56.97;1.90;;;;;;;;;;5115794;28;20452;-69
2022/10/16 12:35:25;;;;;;;57.90;2.37;;;;;;;;;;5115593;28;20579;-69
2022/10/16 12:37:53;;;;;;;57.43;2.00;;;;;;;;;;5115424;28;20452;-69
2022/10/16 12:40:27;;;;;;;57.60;2.17;;;;;;;;;;5115434;28;20467;-69
2022/10/16 12:42:54;;;;;;;57.77;2.20;;;;;;;;;;5115805;28;20467;-69
2022/10/16 12:45:29;;;;;;;57.37;2.17;;;;;;;;;;5115480;28;20437;-68
2022/10/16 12:47:57;;;;;;;57.37;1.90;;;;;;;;;;5115913;28;20536;-69
2022/10/16 12:50:27;;;;;;;57.40;2.00;;;;;;;;;;5114510;28;20533;-68
2022/10/16 12:52:54;;;;;;;57.27;2.10;;;;;;;;;;5115466;28;20554;-68
2022/10/16 12:55:23;;;;;;;59.57;3.07;;;;;;;;;;5115275;28;20485;-69
2022/10/16 12:58:02;;;;;;;57.10;1.80;;;;;;;;;;5115242;28;20450;-69
2022/10/16 13:00:33;;;;;;;57.10;2.13;;;;;;;;;;5114912;28;20448;-69
2022/10/16 13:03:16;;;;;;;57.97;2.50;;;;;;;;;;5115206;28;20827;-69
2022/10/16 13:05:49;;;;;;;56.90;2.10;;;;;;;;;;5115106;28;20917;-69
2022/10/16 13:08:27;;;;;;;57.97;2.10;;;;;;;;;;5115062;28;20448;-69
2022/10/16 13:10:59;;;;;;;57.10;2.40;;;;;;;;;;5115169;28;20453;-69
2022/10/16 13:13:38;;;;;;;57.10;1.87;;;;;;;;;;5114566;28;20536;-68
2022/10/16 13:16:14;;;;;;;57.33;2.17;;;;;;;;;;5114891;28;20997;-69
2022/10/16 13:18:48;;;;;;;56.87;1.90;;;;;;;;;;5114496;28;20449;-68
2022/10/16 13:21:22;;;;;;;56.80;1.80;;;;;;;;;;5115177;28;20446;-67
2022/10/16 13:23:54;;;;;;;57.20;1.90;;;;;;;;;;5114446;28;20828;-69
2022/10/16 13:26:26;;;;;;;57.27;2.23;;;;;;;;;;5114811;28;20461;-70
2022/10/16 13:28:53;;;;;;;57.00;2.00;;;;;;;;;;5113435;28;20840;-69
2022/10/16 13:31:22;;;;;;;56.70;1.90;;;;;;;;;;5114868;28;20473;-69
2022/10/16 13:33:54;;;;;;;60.40;2.20;;;;;;;;;;5114777;28;20461;-69
2022/10/16 13:36:23;;;;;;;60.43;2.40;;;;;;;;;;5113960;28;20993;-71
2022/10/16 13:38:50;;;;;;;57.73;1.97;;;;;;;;;;5114800;28;20456;-71
2022/10/16 13:41:18;;;;;;;57.07;1.80;;;;;;;;;;5114625;28;20453;-71
2022/10/16 13:43:47;;;;;;;56.67;1.90;;;;;;;;;;5114382;28;20946;-68
2022/10/16 13:46:15;;;;;;;57.37;1.90;;;;;;;;;;5114429;28;20465;-69
2022/10/16 13:48:42;;;;;;;57.57;2.00;;;;;;;;;;5113656;28;20446;-69
2022/10/16 13:51:15;;;;;;;57.73;1.83;;;;;;;;;;5114382;28;20452;-69
2022/10/16 13:53:42;;;;;;;57.57;1.90;;;;;;;;;;5114504;28;20449;-69
2022/10/16 13:56:12;;;;;;;57.80;2.50;;;;;;;;;;5114029;27;20494;-69
2022/10/16 13:58:39;;;;;;;58.60;2.30;;;;;;;;;;5113254;28;20441;-69
2022/10/16 14:01:07;;;;;;;57.10;1.97;;;;;;;;;;5114282;28;20442;-68
2022/10/16 14:03:36;;;;;;;57.40;2.10;;;;;;;;;;5114195;28;20448;-69
2022/10/16 14:06:04;;;;;;;57.40;1.90;;;;;;;;;;5114111;28;20472;-70
2022/10/16 14:08:33;;;;;;;57.17;2.00;;;;;;;;;;5113730;28;20451;-69
2022/10/16 14:11:01;;;;;;;56.97;1.93;;;;;;;;;;5113456;28;20537;-69
2022/10/16 14:13:31;;;;;;;57.03;2.10;;;;;;;;;;5114265;28;20452;-69
2022/10/16 14:16:01;;;;;;;57.63;2.27;;;;;;;;;;5113753;28;20481;-69
2022/10/16 14:18:29;;;;;;;57.53;2.30;;;;;;;;;;5113603;28;20456;-69
2022/10/16 14:20:56;;;;;;;58.37;2.37;;;;;;;;;;5113368;28;20444;-69
2022/10/16 14:23:26;;;;;;;59.40;2.53;;;;;;;;;;5113288;28;20446;-69
2022/10/16 14:25:54;;;;;;;58.77;2.90;;;;;;;;;;5113883;28;20852;-69
2022/10/16 14:28:23;;;;;;;63.63;4.70;;;;;;;;;;5113700;28;20453;-69
2022/10/16 14:30:54;;;;;;;60.80;5.13;;;;;;;;;;5113609;28;20827;-69
2022/10/16 14:33:23;;;;;;;59.77;4.00;;;;;;;;;;5112817;28;20442;-68
2022/10/16 14:36:00;;;;;;;59.10;3.50;;;;;;;;;;5113256;28;20530;-68
2022/10/16 14:38:27;;;;;;;58.00;2.73;;;;;;;;;;5113439;28;20571;-69
2022/10/16 14:40:58;;;;;;;58.87;3.33;;;;;;;;;;5113281;28;20449;-69